sensor_id;sensor_type;location;lat;lon;timestamp;pressure;altitude;pressure_sealevel;temperature;humidity
72892;BME280;61032;50.782;6.818;2023-02-28T00:00:59;101797.19;;;2.27;59.14
72892;BME280;61032;50.782;6.818;2023-02-28T00:01:59;101790.69;;;2.28;59.74
72892;BME280;61032;50.782;6.818;2023-02-28T00:03:00;101792.59;;;2.28;59.46
72892;BME280;61032;50.782;6.818;2023-02-28T00:04:01;101793.41;;;2.28;59.09
72892;BME280;61032;50.782;6.818;2023-02-28T00:05:01;101791.78;;;2.16;59.37
72892;BME280;61032;50.782;6.818;2023-02-28T00:06:04;101788.75;;;2.12;59.50
72892;BME280;61032;50.782;6.818;2023-02-28T00:07:05;101795.00;;;2.13;59.93
72892;BME280;61032;50.782;6.818;2023-02-28T00:08:06;101793.81;;;2.08;59.92
72892;BME280;61032;50.782;6.818;2023-02-28T00:09:06;101786.78;;;2.08;59.94
72892;BME280;61032;50.782;6.818;2023-02-28T00:10:08;101790.03;;;2.10;59.62
72892;BME280;61032;50.782;6.818;2023-02-28T00:11:11;101789.97;;;2.04;60.07
72892;BME280;61032;50.782;6.818;2023-02-28T00:12:12;101791.63;;;2.05;60.17
72892;BME280;61032;50.782;6.818;2023-02-28T00:13:12;101789.50;;;2.08;59.66
72892;BME280;61032;50.782;6.818;2023-02-28T00:14:13;101791.84;;;2.04;59.73
72892;BME280;61032;50.782;6.818;2023-02-28T00:15:13;101783.91;;;2.14;59.59
72892;BME280;61032;50.782;6.818;2023-02-28T00:16:19;101789.91;;;2.16;59.72
72892;BME280;61032;50.782;6.818;2023-02-28T00:17:20;101781.09;;;2.09;59.57
72892;BME280;61032;50.782;6.818;2023-02-28T00:18:21;101790.34;;;1.96;60.38
72892;BME280;61032;50.782;6.818;2023-02-28T00:19:22;101794.69;;;1.97;60.44
72892;BME280;61032;50.782;6.818;2023-02-28T00:20:22;101780.41;;;2.02;60.59
72892;BME280;61032;50.782;6.818;2023-02-28T00:21:22;101785.59;;;2.03;60.04
72892;BME280;61032;50.782;6.818;2023-02-28T00:22:24;101783.13;;;2.02;59.89
72892;BME280;61032;50.782;6.818;2023-02-28T00:23:25;101788.75;;;2.12;59.67
72892;BME280;61032;50.782;6.818;2023-02-28T00:24:25;101782.41;;;2.06;59.90
72892;BME280;61032;50.782;6.818;2023-02-28T00:25:26;101792.91;;;2.03;60.48
72892;BME280;61032;50.782;6.818;2023-02-28T00:26:26;101795.28;;;1.99;59.69
72892;BME280;61032;50.782;6.818;2023-02-28T00:27:26;101793.16;;;2.01;60.05
72892;BME280;61032;50.782;6.818;2023-02-28T00:28:30;101787.00;;;2.06;60.31
72892;BME280;61032;50.782;6.818;2023-02-28T00:29:30;101787.25;;;2.04;60.35
72892;BME280;61032;50.782;6.818;2023-02-28T00:30:31;101793.75;;;2.03;60.21
72892;BME280;61032;50.782;6.818;2023-02-28T00:31:31;101796.69;;;2.02;60.18
72892;BME280;61032;50.782;6.818;2023-02-28T00:32:31;101786.31;;;1.99;59.67
72892;BME280;61032;50.782;6.818;2023-02-28T00:33:32;101801.78;;;1.98;59.89
72892;BME280;61032;50.782;6.818;2023-02-28T00:34:32;101798.34;;;2.03;59.78
72892;BME280;61032;50.782;6.818;2023-02-28T00:35:37;101800.22;;;2.02;60.04
72892;BME280;61032;50.782;6.818;2023-02-28T00:36:38;101798.22;;;1.98;59.90
72892;BME280;61032;50.782;6.818;2023-02-28T00:37:38;101793.88;;;1.97;60.18
72892;BME280;61032;50.782;6.818;2023-02-28T00:38:39;101800.13;;;1.97;59.98
72892;BME280;61032;50.782;6.818;2023-02-28T00:39:40;101795.28;;;1.99;61.13
72892;BME280;61032;50.782;6.818;2023-02-28T00:40:41;101797.41;;;1.97;60.18
72892;BME280;61032;50.782;6.818;2023-02-28T00:41:42;101797.16;;;1.99;60.67
72892;BME280;61032;50.782;6.818;2023-02-28T00:42:42;101797.41;;;1.97;60.46
72892;BME280;61032;50.782;6.818;2023-02-28T00:43:42;101806.84;;;1.95;60.64
72892;BME280;61032;50.782;6.818;2023-02-28T00:44:43;101789.16;;;1.92;60.75
72892;BME280;61032;50.782;6.818;2023-02-28T00:45:43;101795.06;;;1.89;59.87
72892;BME280;61032;50.782;6.818;2023-02-28T00:46:43;101796.13;;;1.88;60.17
72892;BME280;61032;50.782;6.818;2023-02-28T00:47:43;101796.72;;;1.90;60.75
72892;BME280;61032;50.782;6.818;2023-02-28T00:48:44;101791.88;;;1.92;60.78
72892;BME280;61032;50.782;6.818;2023-02-28T00:49:44;101799.53;;;1.95;59.66
72892;BME280;61032;50.782;6.818;2023-02-28T00:50:48;101796.00;;;1.95;59.52
72892;BME280;61032;50.782;6.818;2023-02-28T00:51:49;101794.13;;;1.95;61.21
72892;BME280;61032;50.782;6.818;2023-02-28T00:52:49;101795.22;;;1.83;60.09
72892;BME280;61032;50.782;6.818;2023-02-28T00:53:50;101791.94;;;1.81;60.58
72892;BME280;61032;50.782;6.818;2023-02-28T00:54:50;101799.00;;;1.82;60.61
72892;BME280;61032;50.782;6.818;2023-02-28T00:55:51;101797.94;;;1.83;60.77
72892;BME280;61032;50.782;6.818;2023-02-28T00:56:51;101800.66;;;1.83;60.84
72892;BME280;61032;50.782;6.818;2023-02-28T00:57:51;101799.34;;;1.85;60.47
72892;BME280;61032;50.782;6.818;2023-02-28T00:58:52;101799.34;;;1.85;60.23
72892;BME280;61032;50.782;6.818;2023-02-28T00:59:52;101800.41;;;1.84;61.27
72892;BME280;61032;50.782;6.818;2023-02-28T01:00:54;101801.81;;;1.87;60.68
72892;BME280;61032;50.782;6.818;2023-02-28T01:01:54;101806.41;;;1.86;60.46
72892;BME280;61032;50.782;6.818;2023-02-28T01:02:55;101801.00;;;1.86;60.83
72892;BME280;61032;50.782;6.818;2023-02-28T01:03:55;101797.69;;;1.84;60.69
72892;BME280;61032;50.782;6.818;2023-02-28T01:04:55;101805.25;;;1.82;60.72
72892;BME280;61032;50.782;6.818;2023-02-28T01:05:57;101801.34;;;1.78;60.80
72892;BME280;61032;50.782;6.818;2023-02-28T01:06:57;101799.94;;;1.76;61.18
72892;BME280;61032;50.782;6.818;2023-02-28T01:07:58;101806.78;;;1.78;60.50
72892;BME280;61032;50.782;6.818;2023-02-28T01:08:58;101810.66;;;1.82;61.54
72892;BME280;61032;50.782;6.818;2023-02-28T01:09:59;101804.31;;;1.77;60.49
72892;BME280;61032;50.782;6.818;2023-02-28T01:11:07;101807.72;;;1.72;60.62
72892;BME280;61032;50.782;6.818;2023-02-28T01:12:08;101801.25;;;1.73;60.75
72892;BME280;61032;50.782;6.818;2023-02-28T01:13:08;101803.13;;;1.72;60.41
72892;BME280;61032;50.782;6.818;2023-02-28T01:14:12;101803.84;;;1.68;60.92
72892;BME280;61032;50.782;6.818;2023-02-28T01:15:13;101809.03;;;1.69;60.90
72892;BME280;61032;50.782;6.818;2023-02-28T01:16:14;101811.50;;;1.71;61.35
72892;BME280;61032;50.782;6.818;2023-02-28T01:17:15;101802.78;;;1.69;60.65
72892;BME280;61032;50.782;6.818;2023-02-28T01:18:16;101798.91;;;1.65;60.89
72892;BME280;61032;50.782;6.818;2023-02-28T01:19:16;101810.59;;;1.65;61.31
72892;BME280;61032;50.782;6.818;2023-02-28T01:20:16;101811.41;;;1.66;61.64
72892;BME280;61032;50.782;6.818;2023-02-28T01:21:19;101811.41;;;1.66;61.28
72892;BME280;61032;50.782;6.818;2023-02-28T01:22:19;101800.56;;;1.66;61.09
72892;BME280;61032;50.782;6.818;2023-02-28T01:23:21;101802.56;;;1.59;61.64
72892;BME280;61032;50.782;6.818;2023-02-28T01:24:23;101801.03;;;1.63;61.31
72892;BME280;61032;50.782;6.818;2023-02-28T01:25:23;101804.34;;;1.65;61.40
72892;BME280;61032;50.782;6.818;2023-02-28T01:26:24;101802.81;;;1.57;60.89
72892;BME280;61032;50.782;6.818;2023-02-28T01:27:24;101807.28;;;1.52;61.72
72892;BME280;61032;50.782;6.818;2023-02-28T01:28:25;101802.81;;;1.57;61.14
72892;BME280;61032;50.782;6.818;2023-02-28T01:29:25;101800.81;;;1.53;61.16
72892;BME280;61032;50.782;6.818;2023-02-28T01:30:26;101793.88;;;1.45;61.89
72892;BME280;61032;50.782;6.818;2023-02-28T01:31:26;101793.16;;;1.50;61.93
72892;BME280;61032;50.782;6.818;2023-02-28T01:32:26;101808.22;;;1.57;62.04
72892;BME280;61032;50.782;6.818;2023-02-28T01:33:27;101807.75;;;1.60;60.92
72892;BME280;61032;50.782;6.818;2023-02-28T01:34:28;101797.16;;;1.59;61.97
72892;BME280;61032;50.782;6.818;2023-02-28T01:35:32;101799.97;;;1.64;61.36
72892;BME280;61032;50.782;6.818;2023-02-28T01:36:32;101799.63;;;1.60;61.40
72892;BME280;61032;50.782;6.818;2023-02-28T01:37:33;101804.81;;;1.62;61.54
72892;BME280;61032;50.782;6.818;2023-02-28T01:38:33;101799.75;;;1.65;62.17
72892;BME280;61032;50.782;6.818;2023-02-28T01:39:34;101798.41;;;1.68;61.66
72892;BME280;61032;50.782;6.818;2023-02-28T01:40:34;101797.34;;;1.69;61.60
72892;BME280;61032;50.782;6.818;2023-02-28T01:41:34;101799.97;;;1.52;60.97
72892;BME280;61032;50.782;6.818;2023-02-28T01:42:35;101795.03;;;1.49;61.14
72892;BME280;61032;50.782;6.818;2023-02-28T01:45:26;101801.88;;;1.52;62.29
72892;BME280;61032;50.782;6.818;2023-02-28T01:46:27;101790.22;;;1.51;62.20
72892;BME280;61032;50.782;6.818;2023-02-28T01:47:34;101788.56;;;1.62;61.81
72892;BME280;61032;50.782;6.818;2023-02-28T01:48:42;101789.38;;;1.62;60.82
72892;BME280;61032;50.782;6.818;2023-02-28T01:49:47;101791.84;;;1.64;61.79
72892;BME280;61032;50.782;6.818;2023-02-28T01:50:48;101790.78;;;1.65;61.90
72892;BME280;61032;50.782;6.818;2023-02-28T01:51:53;101787.25;;;1.64;61.09
72892;BME280;61032;50.782;6.818;2023-02-28T01:52:56;101789.63;;;1.49;60.94
72892;BME280;61032;50.782;6.818;2023-02-28T01:54:01;101783.72;;;1.52;61.31
72892;BME280;61032;50.782;6.818;2023-02-28T01:55:05;101788.56;;;1.62;62.43
72892;BME280;61032;50.782;6.818;2023-02-28T01:56:07;101788.09;;;1.65;62.19
72892;BME280;61032;50.782;6.818;2023-02-28T01:57:12;101792.03;;;1.74;61.09
72892;BME280;61032;50.782;6.818;2023-02-28T01:58:16;101779.13;;;1.53;60.21
72892;BME280;61032;50.782;6.818;2023-02-28T01:59:23;101783.53;;;1.42;61.19
72892;BME280;61032;50.782;6.818;2023-02-28T02:00:28;101779.59;;;1.50;61.49
72892;BME280;61032;50.782;6.818;2023-02-28T02:01:30;101784.66;;;1.58;61.33
72892;BME280;61032;50.782;6.818;2023-02-28T02:02:31;101790.69;;;1.60;61.32
72892;BME280;61032;50.782;6.818;2023-02-28T02:03:31;101784.53;;;1.64;61.40
72892;BME280;61032;50.782;6.818;2023-02-28T02:04:36;101779.44;;;1.68;61.44
72892;BME280;61032;50.782;6.818;2023-02-28T02:05:39;101780.78;;;1.65;60.36
72892;BME280;61032;50.782;6.818;2023-02-28T02:06:43;101781.59;;;1.66;60.89
72892;BME280;61032;50.782;6.818;2023-02-28T02:07:46;101776.91;;;1.50;61.28
72892;BME280;61032;50.782;6.818;2023-02-28T02:08:48;101778.78;;;1.61;61.24
72892;BME280;61032;50.782;6.818;2023-02-28T02:09:49;101777.25;;;1.65;60.53
72892;BME280;61032;50.782;6.818;2023-02-28T02:10:56;101781.00;;;1.64;61.58
72892;BME280;61032;50.782;6.818;2023-02-28T02:11:57;101777.25;;;1.65;61.18
72892;BME280;61032;50.782;6.818;2023-02-28T02:14:40;101780.13;;;1.87;61.11
72892;BME280;61032;50.782;6.818;2023-02-28T02:18:46;101771.91;;;1.70;60.77
72892;BME280;61032;50.782;6.818;2023-02-28T02:31:31;101759.41;;;1.69;61.36
72892;BME280;61032;50.782;6.818;2023-02-28T02:35:35;101765.41;;;1.71;61.63
72892;BME280;61032;50.782;6.818;2023-02-28T02:36:49;101773.06;;;1.74;60.25
72892;BME280;61032;50.782;6.818;2023-02-28T02:37:59;101768.59;;;1.68;60.28
72892;BME280;61032;50.782;6.818;2023-02-28T02:39:31;101766.41;;;1.65;60.95
72892;BME280;61032;50.782;6.818;2023-02-28T02:40:38;101767.91;;;1.72;60.30
72892;BME280;61032;50.782;6.818;2023-02-28T02:42:02;101762.94;;;1.69;60.54
72892;BME280;61032;50.782;6.818;2023-02-28T02:43:08;101764.25;;;1.67;61.04
72892;BME280;61032;50.782;6.818;2023-02-28T02:44:27;101766.13;;;1.66;61.61
72892;BME280;61032;50.782;6.818;2023-02-28T02:45:47;101763.69;;;1.65;60.96
72892;BME280;61032;50.782;6.818;2023-02-28T02:46:55;101763.09;;;1.63;61.56
72892;BME280;61032;50.782;6.818;2023-02-28T02:47:58;101763.47;;;1.55;61.35
72892;BME280;61032;50.782;6.818;2023-02-28T02:49:04;101770.28;;;1.57;61.21
72892;BME280;61032;50.782;6.818;2023-02-28T02:50:12;101765.94;;;1.56;60.88
72892;BME280;61032;50.782;6.818;2023-02-28T02:51:16;101768.28;;;1.53;60.24
72892;BME280;61032;50.782;6.818;2023-02-28T02:52:20;101768.28;;;1.53;60.97
72892;BME280;61032;50.782;6.818;2023-02-28T02:53:25;101767.94;;;1.49;60.51
72892;BME280;61032;50.782;6.818;2023-02-28T02:54:29;101767.34;;;1.47;61.05
72892;BME280;61032;50.782;6.818;2023-02-28T02:55:34;101765.63;;;1.41;60.50
72892;BME280;61032;50.782;6.818;2023-02-28T02:56:39;101773.50;;;1.43;60.81
72892;BME280;61032;50.782;6.818;2023-02-28T02:57:48;101769.97;;;1.42;61.49
72892;BME280;61032;50.782;6.818;2023-02-28T02:58:51;101768.09;;;1.43;60.49
72892;BME280;61032;50.782;6.818;2023-02-28T02:59:55;101770.22;;;1.41;60.84
72892;BME280;61032;50.782;6.818;2023-02-28T03:00:58;101773.16;;;1.39;60.90
72892;BME280;61032;50.782;6.818;2023-02-28T03:02:04;101774.69;;;1.35;60.75
72892;BME280;61032;50.782;6.818;2023-02-28T03:03:07;101762.78;;;1.36;61.40
72892;BME280;61032;50.782;6.818;2023-02-28T03:04:13;101770.34;;;1.34;61.14
72892;BME280;61032;50.782;6.818;2023-02-28T03:05:41;101767.50;;;1.41;61.46
72892;BME280;61032;50.782;6.818;2023-02-28T03:06:44;101766.09;;;1.38;61.11
72892;BME280;61032;50.782;6.818;2023-02-28T03:07:44;101769.38;;;1.28;61.01
72892;BME280;61032;50.782;6.818;2023-02-28T03:08:45;101765.41;;;1.19;61.46
72892;BME280;61032;50.782;6.818;2023-02-28T03:09:53;101775.66;;;1.17;62.09
72892;BME280;61032;50.782;6.818;2023-02-28T03:10:57;101770.47;;;1.16;62.09
72892;BME280;61032;50.782;6.818;2023-02-28T03:11:59;101770.47;;;1.16;61.75
72892;BME280;61032;50.782;6.818;2023-02-28T03:14:51;101763.63;;;1.13;61.63
72892;BME280;61032;50.782;6.818;2023-02-28T03:19:51;101760.13;;;1.01;61.85
72892;BME280;61032;50.782;6.818;2023-02-28T03:23:23;101754.56;;;1.08;62.47
72892;BME280;61032;50.782;6.818;2023-02-28T03:26:15;101752.00;;;1.01;62.44
72892;BME280;61032;50.782;6.818;2023-02-28T03:27:29;101765.03;;;1.04;62.72
72892;BME280;61032;50.782;6.818;2023-02-28T03:28:47;101754.69;;;1.01;62.79
72892;BME280;61032;50.782;6.818;2023-02-28T03:30:03;101758.00;;;1.03;63.11
72892;BME280;61032;50.782;6.818;2023-02-28T03:32:26;101761.78;;;1.02;62.34
72892;BME280;61032;50.782;6.818;2023-02-28T03:33:55;101750.78;;;1.09;62.59
72892;BME280;61032;50.782;6.818;2023-02-28T03:35:16;101755.38;;;1.08;61.49
72892;BME280;61032;50.782;6.818;2023-02-28T03:36:26;101753.16;;;1.05;62.46
72892;BME280;61032;50.782;6.818;2023-02-28T03:37:28;101751.38;;;1.11;62.31
72892;BME280;61032;50.782;6.818;2023-02-28T03:38:34;101749.50;;;1.11;61.77
72892;BME280;61032;50.782;6.818;2023-02-28T03:39:45;101748.31;;;1.07;62.15
72892;BME280;61032;50.782;6.818;2023-02-28T03:40:55;101750.34;;;1.12;61.28
72892;BME280;61032;50.782;6.818;2023-02-28T03:42:01;101748.44;;;1.12;61.16
72892;BME280;61032;50.782;6.818;2023-02-28T03:43:10;101749.63;;;1.16;61.42
72892;BME280;61032;50.782;6.818;2023-02-28T03:44:21;101744.81;;;1.18;62.11
72892;BME280;61032;50.782;6.818;2023-02-28T03:45:25;101750.81;;;1.20;60.44
72892;BME280;61032;50.782;6.818;2023-02-28T03:46:31;101750.78;;;1.09;61.39
72892;BME280;61032;50.782;6.818;2023-02-28T03:47:40;101753.63;;;1.14;61.55
72892;BME280;61032;50.782;6.818;2023-02-28T03:49:03;101750.69;;;1.15;61.25
72892;BME280;61032;50.782;6.818;2023-02-28T03:51:18;101752.44;;;1.10;61.03
72892;BME280;61032;50.782;6.818;2023-02-28T03:52:24;101749.63;;;1.16;60.26
72892;BME280;61032;50.782;6.818;2023-02-28T03:53:41;101746.69;;;1.18;60.28
72892;BME280;61032;50.782;6.818;2023-02-28T03:54:48;101757.88;;;1.21;60.28
72892;BME280;61032;50.782;6.818;2023-02-28T03:56:05;101753.88;;;1.24;60.24
72892;BME280;61032;50.782;6.818;2023-02-28T03:57:17;101741.94;;;1.25;60.12
72892;BME280;61032;50.782;6.818;2023-02-28T03:58:28;101746.91;;;1.28;60.89
72892;BME280;61032;50.782;6.818;2023-02-28T03:59:35;101750.53;;;1.33;59.29
72892;BME280;61032;50.782;6.818;2023-02-28T04:00:46;101751.25;;;1.29;58.52
72892;BME280;61032;50.782;6.818;2023-02-28T04:01:48;101751.38;;;1.34;59.22
72892;BME280;61032;50.782;6.818;2023-02-28T04:02:49;101757.84;;;1.33;58.72
72892;BME280;61032;50.782;6.818;2023-02-28T04:03:52;101752.91;;;1.30;58.48
72892;BME280;61032;50.782;6.818;2023-02-28T04:04:53;101757.84;;;1.33;58.27
72892;BME280;61032;50.782;6.818;2023-02-28T04:05:54;101760.19;;;1.29;59.29
72892;BME280;61032;50.782;6.818;2023-02-28T04:07:05;101756.91;;;1.27;58.28
72892;BME280;61032;50.782;6.818;2023-02-28T04:08:07;101751.41;;;1.22;59.30
72892;BME280;61032;50.782;6.818;2023-02-28T04:09:10;101750.91;;;1.25;58.07
72892;BME280;61032;50.782;6.818;2023-02-28T04:10:11;101751.03;;;1.19;58.77
72892;BME280;61032;50.782;6.818;2023-02-28T04:12:18;101753.59;;;1.25;58.21
72892;BME280;61032;50.782;6.818;2023-02-28T04:13:19;101751.00;;;1.30;58.48
72892;BME280;61032;50.782;6.818;2023-02-28T04:14:19;101752.91;;;1.30;57.88
72892;BME280;61032;50.782;6.818;2023-02-28T04:15:19;101751.59;;;1.32;57.55
72892;BME280;61032;50.782;6.818;2023-02-28T04:16:22;101753.13;;;1.28;57.77
72892;BME280;61032;50.782;6.818;2023-02-28T04:17:23;101759.72;;;1.32;57.98
72892;BME280;61032;50.782;6.818;2023-02-28T04:18:23;101755.84;;;1.28;57.52
72892;BME280;61032;50.782;6.818;2023-02-28T04:19:23;101761.25;;;1.28;58.32
72892;BME280;61032;50.782;6.818;2023-02-28T04:20:24;101759.38;;;1.29;58.12
72892;BME280;61032;50.782;6.818;2023-02-28T04:21:24;101755.75;;;1.23;57.61
72892;BME280;61032;50.782;6.818;2023-02-28T04:22:24;101762.81;;;1.24;58.82
72892;BME280;61032;50.782;6.818;2023-02-28T04:23:26;101760.34;;;1.23;58.30
72892;BME280;61032;50.782;6.818;2023-02-28T04:24:27;101765.03;;;1.27;58.79
72892;BME280;61032;50.782;6.818;2023-02-28T04:25:27;101757.97;;;1.26;57.81
72892;BME280;61032;50.782;6.818;2023-02-28T04:26:29;101757.97;;;1.26;57.58
72892;BME280;61032;50.782;6.818;2023-02-28T04:27:30;101756.31;;;1.25;58.10
72892;BME280;61032;50.782;6.818;2023-02-28T04:28:30;101763.53;;;1.20;57.23
72892;BME280;61032;50.782;6.818;2023-02-28T04:29:31;101759.75;;;1.21;58.07
72892;BME280;61032;50.782;6.818;2023-02-28T04:30:34;101759.41;;;1.17;58.23
72892;BME280;61032;50.782;6.818;2023-02-28T04:31:34;101767.03;;;1.09;58.18
72892;BME280;61032;50.782;6.818;2023-02-28T04:32:34;101762.22;;;1.11;58.33
72892;BME280;61032;50.782;6.818;2023-02-28T04:33:35;101762.91;;;1.06;58.47
72892;BME280;61032;50.782;6.818;2023-02-28T04:34:35;101768.13;;;0.96;58.13
72892;BME280;61032;50.782;6.818;2023-02-28T04:35:35;101764.47;;;1.02;57.90
72892;BME280;61032;50.782;6.818;2023-02-28T04:36:36;101761.84;;;1.07;58.02
72892;BME280;61032;50.782;6.818;2023-02-28T04:37:36;101758.22;;;1.13;58.42
72892;BME280;61032;50.782;6.818;2023-02-28T04:38:38;101762.69;;;1.08;58.13
72892;BME280;61032;50.782;6.818;2023-02-28T04:39:39;101763.97;;;1.05;58.43
72892;BME280;61032;50.782;6.818;2023-02-28T04:40:39;101768.56;;;1.04;57.58
72892;BME280;61032;50.782;6.818;2023-02-28T04:41:40;101773.06;;;0.99;58.03
72892;BME280;61032;50.782;6.818;2023-02-28T04:42:40;101771.41;;;0.98;57.63
72892;BME280;61032;50.782;6.818;2023-02-28T04:43:40;101768.25;;;1.01;58.68
72892;BME280;61032;50.782;6.818;2023-02-28T04:44:41;101772.09;;;1.05;57.91
72892;BME280;61032;50.782;6.818;2023-02-28T04:45:41;101770.94;;;1.01;57.82
72892;BME280;61032;50.782;6.818;2023-02-28T04:46:42;101768.72;;;0.98;58.83
72892;BME280;61032;50.782;6.818;2023-02-28T04:47:43;101768.94;;;0.96;57.76
72892;BME280;61032;50.782;6.818;2023-02-28T04:48:43;101780.34;;;0.98;58.69
72892;BME280;61032;50.782;6.818;2023-02-28T04:49:44;101770.59;;;0.97;58.08
72892;BME280;61032;50.782;6.818;2023-02-28T04:50:44;101778.94;;;0.96;58.54
72892;BME280;61032;50.782;6.818;2023-02-28T04:51:45;101777.28;;;0.95;57.61
72892;BME280;61032;50.782;6.818;2023-02-28T04:52:45;101778.94;;;0.96;57.83
72892;BME280;61032;50.782;6.818;2023-02-28T04:53:46;101775.06;;;0.92;57.98
72892;BME280;61032;50.782;6.818;2023-02-28T04:54:47;101773.88;;;0.88;58.25
72892;BME280;61032;50.782;6.818;2023-02-28T04:55:47;101778.81;;;0.91;57.67
72892;BME280;61032;50.782;6.818;2023-02-28T04:56:47;101771.97;;;0.88;57.80
72892;BME280;61032;50.782;6.818;2023-02-28T04:57:49;101781.16;;;0.87;57.77
72892;BME280;61032;50.782;6.818;2023-02-28T04:58:50;101782.56;;;0.78;58.20
72892;BME280;61032;50.782;6.818;2023-02-28T04:59:51;101781.97;;;0.76;58.68
72892;BME280;61032;50.782;6.818;2023-02-28T05:00:53;101784.69;;;0.76;58.01
72892;BME280;61032;50.782;6.818;2023-02-28T05:01:53;101781.03;;;0.71;58.57
72892;BME280;61032;50.782;6.818;2023-02-28T05:02:53;101781.38;;;0.74;58.46
72892;BME280;61032;50.782;6.818;2023-02-28T05:03:56;101781.75;;;0.78;59.12
72892;BME280;61032;50.782;6.818;2023-02-28T05:04:56;101784.22;;;0.79;59.22
72892;BME280;61032;50.782;6.818;2023-02-28T05:05:56;101785.28;;;0.78;58.46
72892;BME280;61032;50.782;6.818;2023-02-28T05:07:00;101785.28;;;0.78;58.88
72892;BME280;61032;50.782;6.818;2023-02-28T05:08:00;101786.69;;;0.81;58.89
72892;BME280;61032;50.782;6.818;2023-02-28T05:09:00;101782.34;;;0.80;57.94
72892;BME280;61032;50.782;6.818;2023-02-28T05:10:01;101787.50;;;0.69;58.87
72892;BME280;61032;50.782;6.818;2023-02-28T05:11:02;101781.47;;;0.67;58.86
72892;BME280;61032;50.782;6.818;2023-02-28T05:12:02;101780.19;;;0.70;58.96
72892;BME280;61032;50.782;6.818;2023-02-28T05:13:03;101789.28;;;0.76;58.73
72892;BME280;61032;50.782;6.818;2023-02-28T05:14:06;101789.41;;;0.81;58.68
72892;BME280;61032;50.782;6.818;2023-02-28T05:15:12;101788.22;;;0.77;58.22
72892;BME280;61032;50.782;6.818;2023-02-28T05:16:14;101793.50;;;0.72;58.36
72892;BME280;61032;50.782;6.818;2023-02-28T05:17:14;101792.22;;;0.74;58.58
72892;BME280;61032;50.782;6.818;2023-02-28T05:18:15;101787.84;;;0.73;58.01
72892;BME280;61032;50.782;6.818;2023-02-28T05:19:15;101795.41;;;0.83;59.62
72892;BME280;61032;50.782;6.818;2023-02-28T05:20:16;101791.53;;;0.79;58.29
72892;BME280;61032;50.782;6.818;2023-02-28T05:21:37;101790.94;;;0.77;58.92
72892;BME280;61032;50.782;6.818;2023-02-28T05:22:39;101791.97;;;0.76;58.39
72892;BME280;61032;50.782;6.818;2023-02-28T05:23:40;101796.34;;;0.77;58.29
72892;BME280;61032;50.782;6.818;2023-02-28T05:24:40;101795.75;;;0.75;58.14
72892;BME280;61032;50.782;6.818;2023-02-28T05:25:42;101795.28;;;0.78;59.09
72892;BME280;61032;50.782;6.818;2023-02-28T05:26:42;101791.97;;;0.76;58.32
72892;BME280;61032;50.782;6.818;2023-02-28T05:27:43;101795.97;;;0.73;59.01
72892;BME280;61032;50.782;6.818;2023-02-28T05:28:43;101786.91;;;0.67;58.82
72892;BME280;61032;50.782;6.818;2023-02-28T05:29:43;101789.47;;;0.62;58.67
72892;BME280;61032;50.782;6.818;2023-02-28T05:30:44;101786.44;;;0.71;59.57
72892;BME280;61032;50.782;6.818;2023-02-28T05:31:44;101785.38;;;0.72;59.08
72892;BME280;61032;50.782;6.818;2023-02-28T05:32:49;101788.56;;;0.68;59.15
72892;BME280;61032;50.782;6.818;2023-02-28T05:33:51;101787.94;;;0.66;58.21
72892;BME280;61032;50.782;6.818;2023-02-28T05:34:51;101791.84;;;0.59;59.15
72892;BME280;61032;50.782;6.818;2023-02-28T05:35:51;101784.66;;;0.64;59.35
72892;BME280;61032;50.782;6.818;2023-02-28T05:36:52;101788.78;;;0.67;59.90
72892;BME280;61032;50.782;6.818;2023-02-28T05:37:52;101785.47;;;0.65;59.17
72892;BME280;61032;50.782;6.818;2023-02-28T05:38:52;101784.06;;;0.62;59.30
72892;BME280;61032;50.782;6.818;2023-02-28T05:39:53;101783.94;;;0.57;59.33
72892;BME280;61032;50.782;6.818;2023-02-28T05:40:53;101787.72;;;0.56;59.23
72892;BME280;61032;50.782;6.818;2023-02-28T05:41:53;101783.72;;;0.59;59.59
72892;BME280;61032;50.782;6.818;2023-02-28T05:42:53;101785.84;;;0.57;59.25
72892;BME280;61032;50.782;6.818;2023-02-28T05:43:54;101783.13;;;0.57;58.94
72892;BME280;61032;50.782;6.818;2023-02-28T05:44:54;101785.31;;;0.48;59.67
72892;BME280;61032;50.782;6.818;2023-02-28T05:45:55;101785.09;;;0.50;59.77
72892;BME280;61032;50.782;6.818;2023-02-28T05:46:55;101789.22;;;0.52;59.90
72892;BME280;61032;50.782;6.818;2023-02-28T05:47:55;101785.94;;;0.50;58.84
72892;BME280;61032;50.782;6.818;2023-02-28T05:48:56;101786.38;;;0.47;59.11
72892;BME280;61032;50.782;6.818;2023-02-28T05:49:57;101785.59;;;0.17;58.92
72892;BME280;61032;50.782;6.818;2023-02-28T05:50:58;101779.88;;;-0.05;60.05
72892;BME280;61032;50.782;6.818;2023-02-28T05:51:58;101785.72;;;-0.08;60.32
72892;BME280;61032;50.782;6.818;2023-02-28T05:52:58;101790.56;;;0.02;60.46
72892;BME280;61032;50.782;6.818;2023-02-28T05:54:00;101795.66;;;0.10;60.58
72892;BME280;61032;50.782;6.818;2023-02-28T05:55:01;101789.84;;;-0.06;60.72
72892;BME280;61032;50.782;6.818;2023-02-28T05:56:01;101786.34;;;0.06;59.88
72892;BME280;61032;50.782;6.818;2023-02-28T05:57:01;101792.09;;;0.27;60.81
72892;BME280;61032;50.782;6.818;2023-02-28T05:58:02;101791.25;;;0.27;60.18
72892;BME280;61032;50.782;6.818;2023-02-28T05:59:02;101788.78;;;0.25;60.47
72892;BME280;61032;50.782;6.818;2023-02-28T06:00:03;101785.00;;;0.15;61.04
72892;BME280;61032;50.782;6.818;2023-02-28T06:01:25;101787.28;;;-0.01;60.93
72892;BME280;61032;50.782;6.818;2023-02-28T06:02:30;101792.75;;;0.11;60.49
72892;BME280;61032;50.782;6.818;2023-02-28T06:03:30;101792.06;;;0.16;60.46
72892;BME280;61032;50.782;6.818;2023-02-28T06:04:30;101787.25;;;0.18;59.77
72892;BME280;61032;50.782;6.818;2023-02-28T06:05:31;101789.38;;;0.27;59.77
72892;BME280;61032;50.782;6.818;2023-02-28T06:06:31;101789.16;;;0.29;60.23
72892;BME280;61032;50.782;6.818;2023-02-28T06:07:34;101790.44;;;0.26;59.46
72892;BME280;61032;50.782;6.818;2023-02-28T06:08:34;101798.47;;;0.33;59.67